createdAt,value
2018-05-26T00:00:48.963Z,0.00
2018-05-26T00:01:48.966Z,0.00
2018-05-26T00:02:48.966Z,0.00
2018-05-26T00:03:48.966Z,0.00
2018-05-26T00:04:48.976Z,0.00
2018-05-26T00:05:48.967Z,0.00
2018-05-26T00:06:50.842Z,0.00
2018-05-26T00:07:48.975Z,0.00
2018-05-26T00:08:48.972Z,0.00
2018-05-26T00:09:48.976Z,0.00
2018-05-26T00:10:48.974Z,0.00
2018-05-26T00:11:48.972Z,0.00
2018-05-26T00:12:48.976Z,0.00
2018-05-26T00:13:48.978Z,0.00
2018-05-26T00:14:49.038Z,0.00
2018-05-26T00:15:48.982Z,0.00
2018-05-26T00:16:48.986Z,0.00
2018-05-26T00:17:48.982Z,0.00
2018-05-26T00:18:48.985Z,0.00
2018-05-26T00:19:48.985Z,0.00
2018-05-26T00:20:48.991Z,0.00
2018-05-26T00:21:48.985Z,0.00
2018-05-26T00:22:49.022Z,0.00
2018-05-26T00:23:48.986Z,0.00
2018-05-26T00:24:48.987Z,0.00
2018-05-26T00:25:48.994Z,0.00
2018-05-26T00:26:48.988Z,0.00
2018-05-26T00:27:48.985Z,0.00
2018-05-26T00:28:49.025Z,0.00
2018-05-26T00:29:48.987Z,0.00
2018-05-26T00:30:49.043Z,0.00
2018-05-26T00:31:48.996Z,0.00
2018-05-26T00:32:48.999Z,0.00
2018-05-26T00:33:49.013Z,0.00
2018-05-26T00:34:48.991Z,0.00
2018-05-26T00:35:48.996Z,0.00
2018-05-26T00:36:48.995Z,0.00
2018-05-26T00:37:48.998Z,0.00
2018-05-26T00:38:48.997Z,0.00
2018-05-26T00:39:48.998Z,0.00
2018-05-26T00:40:48.999Z,0.00
2018-05-26T00:41:49.012Z,0.00
2018-05-26T00:42:49.010Z,0.00
2018-05-26T00:43:49.001Z,0.00
2018-05-26T00:44:49.001Z,0.00
2018-05-26T00:45:48.997Z,0.00
2018-05-26T00:46:49.002Z,0.00
2018-05-26T00:47:48.998Z,0.00
2018-05-26T00:48:49.001Z,0.00
2018-05-26T00:49:49.003Z,0.00
2018-05-26T00:50:49.005Z,0.00
2018-05-26T00:51:49.004Z,0.00
2018-05-26T00:52:49.026Z,0.00
2018-05-26T00:53:49.003Z,0.00
2018-05-26T00:54:49.002Z,0.00
2018-05-26T00:55:49.006Z,0.00
2018-05-26T00:56:49.007Z,0.00
2018-05-26T00:57:49.013Z,0.00
2018-05-26T00:58:49.008Z,0.00
2018-05-26T00:59:49.005Z,0.00
2018-05-26T01:00:49.011Z,0.00
2018-05-26T01:01:49.011Z,0.00
2018-05-26T01:02:49.011Z,0.00
2018-05-26T01:03:49.021Z,0.00
2018-05-26T01:04:49.011Z,0.00
2018-05-26T01:05:49.049Z,0.00
2018-05-26T01:06:49.012Z,0.00
2018-05-26T01:07:49.010Z,0.00
2018-05-26T01:08:49.014Z,0.00
2018-05-26T01:09:49.016Z,0.00
2018-05-26T01:10:49.011Z,0.00
2018-05-26T01:11:49.013Z,0.00
2018-05-26T01:12:49.014Z,0.00
2018-05-26T01:13:49.015Z,0.00
2018-05-26T01:14:49.016Z,0.00
2018-05-26T01:15:49.016Z,0.00
2018-05-26T01:16:49.015Z,0.00
2018-05-26T01:17:49.015Z,0.00
2018-05-26T01:18:49.016Z,0.00
2018-05-26T01:19:49.018Z,0.00
2018-05-26T01:20:49.018Z,0.00
2018-05-26T01:21:49.038Z,0.00
2018-05-26T01:22:49.018Z,0.00
2018-05-26T01:23:49.020Z,0.00
2018-05-26T01:24:49.028Z,0.00
2018-05-26T01:25:49.015Z,0.00
2018-05-26T01:26:49.047Z,0.00
2018-05-26T01:27:49.019Z,0.00
2018-05-26T01:28:49.019Z,0.00
2018-05-26T01:29:49.045Z,0.00
2018-05-26T01:30:49.020Z,0.00
2018-05-26T01:31:49.020Z,0.00
2018-05-26T01:32:49.022Z,0.00
2018-05-26T01:33:49.025Z,0.00
2018-05-26T01:34:49.021Z,0.00
2018-05-26T01:35:49.032Z,0.00
2018-05-26T01:36:49.021Z,0.00
2018-05-26T01:37:49.021Z,0.00
2018-05-26T01:38:49.022Z,0.00
2018-05-26T01:39:49.025Z,0.00
2018-05-26T01:40:49.030Z,0.00
2018-05-26T01:41:49.033Z,0.00
2018-05-26T01:42:49.023Z,0.00
2018-05-26T01:43:49.051Z,0.00
2018-05-26T01:44:49.023Z,0.00
2018-05-26T01:45:49.023Z,0.00
2018-05-26T01:46:49.024Z,0.00
2018-05-26T01:47:49.026Z,0.00
2018-05-26T01:48:49.030Z,0.00
2018-05-26T01:49:49.028Z,0.00
2018-05-26T01:50:49.027Z,0.00
2018-05-26T01:51:49.050Z,0.00
2018-05-26T01:52:49.030Z,0.00
2018-05-26T01:53:49.028Z,0.00
2018-05-26T01:54:49.030Z,0.00
2018-05-26T01:55:49.027Z,0.00
2018-05-26T01:56:49.028Z,0.00
2018-05-26T01:57:49.026Z,0.00
2018-05-26T01:58:49.031Z,0.00
2018-05-26T01:59:49.046Z,0.00
2018-05-26T02:00:49.023Z,0.00
2018-05-26T02:01:49.029Z,0.00
2018-05-26T02:02:49.028Z,0.00
2018-05-26T02:03:49.028Z,0.00
2018-05-26T02:04:49.030Z,0.00
2018-05-26T02:05:49.036Z,0.00
2018-05-26T02:06:49.025Z,0.00
2018-05-26T02:07:49.027Z,0.00
2018-05-26T02:08:49.032Z,0.00
2018-05-26T02:09:49.045Z,0.00
2018-05-26T02:10:49.031Z,0.00
2018-05-26T02:11:49.039Z,0.00
2018-05-26T02:12:49.028Z,0.00
2018-05-26T02:13:49.031Z,0.00
2018-05-26T02:14:49.027Z,0.00
2018-05-26T02:15:49.029Z,0.00
2018-05-26T02:16:49.025Z,0.00
2018-05-26T02:17:49.027Z,0.00
2018-05-26T02:18:49.028Z,0.00
2018-05-26T02:19:49.026Z,0.00
2018-05-26T02:20:49.032Z,0.00
2018-05-26T02:21:49.027Z,0.00
2018-05-26T02:22:49.034Z,0.00
2018-05-26T02:23:49.033Z,0.00
2018-05-26T02:24:50.856Z,0.00
2018-05-26T02:25:49.027Z,0.00
2018-05-26T02:26:49.078Z,0.00
2018-05-26T02:27:49.065Z,0.00
2018-05-26T02:28:49.030Z,0.00
2018-05-26T02:29:49.061Z,0.00
2018-05-26T02:30:49.035Z,0.00
2018-05-26T02:31:49.098Z,0.00
2018-05-26T02:32:49.039Z,0.00
2018-05-26T02:33:49.033Z,0.00
2018-05-26T02:34:49.029Z,0.00
2018-05-26T02:35:49.032Z,0.00
2018-05-26T02:36:49.037Z,0.00
2018-05-26T02:37:49.032Z,0.00
2018-05-26T02:38:49.033Z,0.00
2018-05-26T02:39:49.030Z,0.00
2018-05-26T02:40:49.058Z,0.00
2018-05-26T02:41:49.056Z,0.00
2018-05-26T02:42:49.036Z,0.00
2018-05-26T02:43:49.038Z,0.00
2018-05-26T02:44:49.039Z,0.00
2018-05-26T02:45:49.037Z,0.00
2018-05-26T02:46:49.032Z,0.00
2018-05-26T02:47:49.039Z,0.00
2018-05-26T02:48:49.032Z,0.00
2018-05-26T02:49:49.039Z,0.00
2018-05-26T02:50:49.033Z,0.00
2018-05-26T02:51:49.030Z,0.00
2018-05-26T02:52:49.038Z,0.00
2018-05-26T02:53:49.033Z,0.00
2018-05-26T02:54:49.038Z,0.00
2018-05-26T02:55:49.039Z,0.00
2018-05-26T02:56:49.031Z,0.00
2018-05-26T02:57:49.031Z,0.00
2018-05-26T02:58:49.033Z,0.00
2018-05-26T02:59:49.035Z,0.00
2018-05-26T03:00:49.031Z,0.00
2018-05-26T03:01:49.033Z,0.00
2018-05-26T03:02:49.031Z,0.00
2018-05-26T03:03:49.028Z,0.00
2018-05-26T03:04:49.034Z,0.00
2018-05-26T03:05:49.060Z,0.00
2018-05-26T03:06:49.032Z,0.00
2018-05-26T03:07:49.035Z,0.00
2018-05-26T03:08:49.025Z,0.00
2018-05-26T03:09:49.025Z,0.00
2018-05-26T03:10:49.030Z,0.00
2018-05-26T03:11:49.033Z,0.00
2018-05-26T03:12:49.055Z,0.00
2018-05-26T03:13:49.065Z,0.00
2018-05-26T03:14:49.030Z,0.00
2018-05-26T03:15:49.029Z,0.00
2018-05-26T03:16:49.028Z,0.00
2018-05-26T03:17:49.029Z,0.00
2018-05-26T03:18:49.031Z,0.00
2018-05-26T03:19:49.055Z,0.00
2018-05-26T03:20:49.023Z,0.00
2018-05-26T03:21:49.044Z,0.00
2018-05-26T03:22:49.032Z,0.00
2018-05-26T03:23:49.024Z,0.00
2018-05-26T03:24:49.024Z,0.00
2018-05-26T03:25:49.029Z,0.00
2018-05-26T03:26:49.027Z,0.00
2018-05-26T03:27:49.035Z,0.00
2018-05-26T03:28:49.024Z,5.63
2018-05-26T03:29:49.028Z,5.63
2018-05-26T03:30:49.030Z,5.63
2018-05-26T03:31:49.028Z,5.63
2018-05-26T03:32:49.028Z,5.63
2018-05-26T03:33:49.031Z,5.63
2018-05-26T03:34:49.027Z,5.63
2018-05-26T03:35:49.026Z,5.63
2018-05-26T03:36:49.027Z,5.63
2018-05-26T03:37:49.022Z,5.63
2018-05-26T03:38:49.030Z,5.63
2018-05-26T03:39:49.021Z,5.63
2018-05-26T03:40:49.024Z,5.63
2018-05-26T03:41:49.046Z,5.63
2018-05-26T03:42:49.025Z,5.63
2018-05-26T03:43:49.025Z,5.63
2018-05-26T03:44:49.073Z,11.25
2018-05-26T03:45:49.034Z,11.25
2018-05-26T03:46:49.023Z,11.25
2018-05-26T03:47:49.020Z,11.25
2018-05-26T03:48:49.024Z,11.25
2018-05-26T03:49:49.029Z,11.25
2018-05-26T03:50:49.058Z,11.25
2018-05-26T03:51:49.024Z,11.25
2018-05-26T03:52:49.029Z,11.25
2018-05-26T03:53:49.024Z,11.25
2018-05-26T03:54:49.025Z,11.25
2018-05-26T03:55:49.020Z,11.25
2018-05-26T03:56:49.021Z,11.25
2018-05-26T03:57:49.021Z,16.88
2018-05-26T03:58:49.024Z,16.88
2018-05-26T03:59:49.019Z,16.88
2018-05-26T04:00:49.018Z,16.88
2018-05-26T04:01:49.020Z,16.88
2018-05-26T04:02:49.024Z,16.88
2018-05-26T04:03:49.045Z,16.88
2018-05-26T04:04:49.021Z,16.88
2018-05-26T04:05:49.036Z,16.88
2018-05-26T04:06:49.020Z,16.88
2018-05-26T04:07:49.021Z,16.88
2018-05-26T04:08:49.064Z,22.50
2018-05-26T04:09:49.055Z,22.50
2018-05-26T04:10:49.025Z,22.50
2018-05-26T04:11:49.021Z,22.50
2018-05-26T04:12:49.021Z,22.50
2018-05-26T04:13:49.020Z,22.50
2018-05-26T04:14:49.020Z,22.50
2018-05-26T04:15:49.027Z,22.50
2018-05-26T04:16:49.027Z,22.50
2018-05-26T04:17:49.023Z,22.50
2018-05-26T04:18:49.021Z,22.50
2018-05-26T04:19:49.063Z,22.50
2018-05-26T04:20:49.022Z,22.50
2018-05-26T04:21:49.021Z,22.50
2018-05-26T04:22:49.024Z,22.50
2018-05-26T04:23:49.021Z,22.50
2018-05-26T04:24:49.025Z,22.50
2018-05-26T04:25:49.030Z,22.50
2018-05-26T04:26:49.027Z,28.13
2018-05-26T04:27:49.027Z,28.13
2018-05-26T04:28:49.026Z,28.13
2018-05-26T04:29:49.108Z,28.13
2018-05-26T04:30:49.019Z,28.13
2018-05-26T04:31:49.019Z,28.13
2018-05-26T04:32:49.017Z,28.13
2018-05-26T04:33:49.019Z,28.13
2018-05-26T04:34:49.061Z,28.13
2018-05-26T04:35:49.036Z,28.13
2018-05-26T04:36:49.024Z,28.13
2018-05-26T04:37:49.095Z,28.13
2018-05-26T04:38:49.031Z,28.13
2018-05-26T04:39:49.027Z,28.13
2018-05-26T04:40:49.028Z,28.13
2018-05-26T04:41:49.028Z,28.13
2018-05-26T04:42:49.083Z,33.75
2018-05-26T04:43:49.025Z,33.75
2018-05-26T04:44:49.026Z,33.75
2018-05-26T04:45:49.027Z,33.75
2018-05-26T04:46:49.077Z,33.75
2018-05-26T04:47:49.044Z,33.75
2018-05-26T04:48:49.053Z,33.75
2018-05-26T04:49:49.029Z,33.75
2018-05-26T04:50:49.033Z,33.75
2018-05-26T04:51:49.031Z,33.75
2018-05-26T04:52:49.125Z,33.75
2018-05-26T04:53:49.069Z,33.75
2018-05-26T04:54:49.064Z,33.75
2018-05-26T04:55:49.039Z,33.75
2018-05-26T04:56:49.037Z,33.75
2018-05-26T04:57:49.028Z,39.38
2018-05-26T04:58:49.042Z,39.38
2018-05-26T04:59:49.040Z,39.38
2018-05-26T05:00:49.053Z,39.38
2018-05-26T05:01:49.064Z,39.38
2018-05-26T05:02:49.040Z,39.38
2018-05-26T05:03:49.039Z,39.38
2018-05-26T05:04:49.109Z,39.38
2018-05-26T05:05:49.044Z,39.38
2018-05-26T05:06:49.039Z,39.38
2018-05-26T05:07:49.047Z,45.00
2018-05-26T05:08:49.042Z,45.00
2018-05-26T05:09:49.069Z,45.00
2018-05-26T05:10:49.059Z,45.00
2018-05-26T05:11:49.049Z,50.63
2018-05-26T05:12:49.049Z,50.63
2018-05-26T05:13:49.092Z,50.63
2018-05-26T05:14:49.049Z,50.63
2018-05-26T05:15:49.076Z,56.25
2018-05-26T05:16:49.056Z,56.25
2018-05-26T05:17:49.061Z,56.25
2018-05-26T05:18:49.057Z,56.25
2018-05-26T05:19:49.049Z,56.25
2018-05-26T05:20:49.057Z,61.88
2018-05-26T05:21:49.053Z,61.88
2018-05-26T05:22:49.056Z,61.88
2018-05-26T05:23:49.058Z,61.88
2018-05-26T05:24:49.059Z,61.88
2018-05-26T05:25:49.069Z,67.50
2018-05-26T05:26:49.118Z,67.50
2018-05-26T05:27:49.059Z,67.50
2018-05-26T05:28:49.073Z,67.50
2018-05-26T05:29:49.076Z,73.13
2018-05-26T05:30:49.069Z,73.13
2018-05-26T05:31:49.071Z,73.13
2018-05-26T05:32:49.069Z,78.75
2018-05-26T05:33:49.092Z,78.75
2018-05-26T05:34:49.078Z,78.75
2018-05-26T05:35:49.091Z,78.75
2018-05-26T05:36:49.116Z,78.75
2018-05-26T05:37:49.077Z,78.75
2018-05-26T05:38:49.078Z,84.38
2018-05-26T05:39:49.086Z,84.38
2018-05-26T05:40:49.088Z,84.38
2018-05-26T05:41:49.083Z,84.38
2018-05-26T05:42:49.092Z,84.38
2018-05-26T05:43:49.089Z,90.00
2018-05-26T05:44:49.098Z,90.00
2018-05-26T05:45:49.097Z,90.00
2018-05-26T05:46:49.093Z,90.00
2018-05-26T05:47:49.095Z,90.00
2018-05-26T05:48:49.107Z,90.00
2018-05-26T05:49:49.115Z,90.00
2018-05-26T05:50:49.123Z,90.00
2018-05-26T05:51:49.105Z,90.00
2018-05-26T05:52:49.110Z,90.00
2018-05-26T05:53:49.118Z,90.00
2018-05-26T05:54:49.154Z,95.63
2018-05-26T05:55:49.123Z,95.63
2018-05-26T05:56:49.121Z,95.63
2018-05-26T05:57:49.124Z,95.63
2018-05-26T05:58:49.149Z,95.63
2018-05-26T05:59:49.154Z,95.63
2018-05-26T06:00:49.137Z,95.63
2018-05-26T06:01:49.137Z,95.63
2018-05-26T06:02:49.139Z,101.25
2018-05-26T06:03:49.136Z,101.25
2018-05-26T06:04:49.163Z,101.25
2018-05-26T06:05:49.143Z,101.25
2018-05-26T06:06:49.156Z,101.25
2018-05-26T06:07:49.152Z,101.25
2018-05-26T06:08:49.155Z,101.25
2018-05-26T06:09:49.172Z,106.88
2018-05-26T06:10:49.161Z,106.88
2018-05-26T06:11:49.185Z,123.75
2018-05-26T06:12:49.170Z,146.25
2018-05-26T06:13:49.175Z,168.75
2018-05-26T06:14:49.228Z,174.38
2018-05-26T06:15:49.215Z,174.38
2018-05-26T06:16:49.205Z,174.38
2018-05-26T06:17:49.214Z,180.00
2018-05-26T06:18:49.192Z,180.00
2018-05-26T06:19:49.193Z,180.00
2018-05-26T06:20:49.200Z,174.38
2018-05-26T06:21:49.214Z,174.38
2018-05-26T06:22:49.211Z,174.38
2018-05-26T06:23:49.223Z,180.00
2018-05-26T06:24:49.215Z,180.00
2018-05-26T06:25:49.226Z,174.38
2018-05-26T06:26:49.225Z,180.00
2018-05-26T06:27:49.231Z,180.00
2018-05-26T06:28:49.237Z,168.75
2018-05-26T06:29:49.239Z,180.00
2018-05-26T06:30:49.268Z,174.38
2018-05-26T06:31:49.303Z,180.00
2018-05-26T06:32:49.260Z,168.75
2018-05-26T06:33:49.273Z,135.00
2018-05-26T06:34:49.268Z,163.13
2018-05-26T06:35:49.275Z,151.88
2018-05-26T06:36:49.284Z,163.13
2018-05-26T06:37:49.341Z,180.00
2018-05-26T06:38:49.287Z,191.25
2018-05-26T06:39:49.293Z,191.25
2018-05-26T06:40:49.305Z,196.88
2018-05-26T06:41:49.310Z,196.88
2018-05-26T06:42:49.312Z,191.25
2018-05-26T06:43:49.322Z,191.25
2018-05-26T06:44:49.330Z,191.25
2018-05-26T06:45:49.340Z,168.75
2018-05-26T06:46:49.361Z,151.88
2018-05-26T06:47:49.348Z,157.50
2018-05-26T06:48:49.356Z,146.25
2018-05-26T06:49:49.365Z,151.88
2018-05-26T06:50:49.392Z,191.25
2018-05-26T06:51:49.375Z,202.50
2018-05-26T06:52:49.387Z,202.50
2018-05-26T06:53:49.412Z,196.88
2018-05-26T06:54:49.400Z,208.13
2018-05-26T06:55:49.406Z,213.75
2018-05-26T06:56:49.415Z,213.75
2018-05-26T06:57:49.432Z,213.75
2018-05-26T06:58:49.423Z,219.38
2018-05-26T06:59:49.507Z,219.38
2018-05-26T07:00:49.457Z,219.38
2018-05-26T07:01:49.470Z,225.00
2018-05-26T07:02:49.521Z,225.00
2018-05-26T07:03:49.532Z,230.63
2018-05-26T07:04:49.479Z,230.63
2018-05-26T07:05:49.481Z,236.25
2018-05-26T07:06:49.495Z,236.25
2018-05-26T07:07:49.501Z,236.25
2018-05-26T07:08:49.511Z,241.88
2018-05-26T07:09:49.517Z,241.88
2018-05-26T07:10:49.527Z,241.88
2018-05-26T07:11:49.579Z,241.88
2018-05-26T07:12:49.540Z,241.88
2018-05-26T07:13:49.566Z,253.13
2018-05-26T07:14:49.629Z,253.13
2018-05-26T07:15:49.568Z,258.75
2018-05-26T07:16:49.610Z,253.13
2018-05-26T07:17:49.619Z,253.13
2018-05-26T07:18:49.601Z,258.75
2018-05-26T07:19:49.608Z,264.38
2018-05-26T07:20:49.620Z,264.38
2018-05-26T07:21:49.663Z,264.38
2018-05-26T07:22:51.418Z,258.75
2018-05-26T07:23:50.481Z,258.75
2018-05-26T07:24:50.424Z,264.38
2018-05-26T07:25:49.682Z,264.38
2018-05-26T07:26:49.801Z,264.38
2018-05-26T07:27:49.873Z,264.38
2018-05-26T07:28:49.694Z,258.75
2018-05-26T07:29:52.426Z,258.75
2018-05-26T07:30:49.756Z,264.38
2018-05-26T07:31:49.732Z,264.38
2018-05-26T07:32:49.781Z,270.00
2018-05-26T07:33:49.823Z,275.63
2018-05-26T07:34:49.794Z,275.63
2018-05-26T07:35:49.775Z,281.25
2018-05-26T07:36:49.796Z,281.25
2018-05-26T07:37:49.819Z,281.25
2018-05-26T07:38:49.907Z,286.88
2018-05-26T07:39:49.832Z,286.88
2018-05-26T07:40:49.889Z,292.50
2018-05-26T07:41:49.900Z,292.50
2018-05-26T07:42:49.862Z,292.50
2018-05-26T07:43:52.516Z,298.13
2018-05-26T07:44:51.514Z,298.13
2018-05-26T07:45:49.935Z,298.13
2018-05-26T07:46:49.948Z,298.13
2018-05-26T07:47:49.916Z,298.13
2018-05-26T07:48:55.474Z,303.75
2018-05-26T07:49:49.931Z,298.13
2018-05-26T07:50:50.063Z,303.75
2018-05-26T07:51:49.992Z,303.75
2018-05-26T07:52:50.002Z,303.75
2018-05-26T07:53:50.072Z,309.38
2018-05-26T07:54:50.024Z,315.00
2018-05-26T07:55:50.147Z,315.00
2018-05-26T07:56:50.149Z,315.00
2018-05-26T07:57:50.145Z,315.00
2018-05-26T07:58:59.982Z,320.63
2018-05-26T07:59:50.076Z,320.63
2018-05-26T08:00:50.225Z,320.63
2018-05-26T08:01:50.196Z,331.88
2018-05-26T08:02:50.124Z,326.25
2018-05-26T08:03:50.254Z,331.88
2018-05-26T08:04:54.971Z,331.88
2018-05-26T08:05:50.167Z,331.88
2018-05-26T08:06:50.188Z,331.88
2018-05-26T08:07:50.313Z,331.88
2018-05-26T08:08:50.225Z,337.50
2018-05-26T08:09:50.291Z,343.13
2018-05-26T08:10:50.370Z,343.13
2018-05-26T08:11:50.258Z,354.38
2018-05-26T08:12:50.467Z,360.00
2018-05-26T08:13:51.119Z,365.63
2018-05-26T08:14:50.551Z,371.25
2018-05-26T08:15:50.463Z,382.50
2018-05-26T08:16:50.501Z,388.13
2018-05-26T08:17:50.335Z,405.00
2018-05-26T08:18:50.302Z,433.13
2018-05-26T08:19:50.367Z,466.88
2018-05-26T08:20:50.451Z,511.88
2018-05-26T08:22:06.082Z,540.00
2018-05-26T08:24:15.934Z,556.88
2018-05-26T08:25:16.024Z,545.63
2018-05-26T08:26:15.964Z,528.75
2018-05-26T08:27:16.065Z,506.25
2018-05-26T08:28:15.998Z,489.38
2018-05-26T08:29:16.006Z,388.13
2018-05-26T08:30:23.156Z,264.38
2018-05-26T08:32:08.922Z,208.13
2018-05-26T08:33:08.961Z,202.50
2018-05-26T08:36:00.491Z,213.75
2018-05-26T08:37:38.459Z,202.50
2018-05-26T08:38:38.546Z,208.13
2018-05-26T08:39:38.458Z,202.50
2018-05-26T08:40:38.458Z,202.50
2018-05-26T08:41:49.622Z,202.50
2018-05-26T08:42:38.786Z,202.50
2018-05-26T08:43:39.704Z,202.50
2018-05-26T08:44:38.709Z,208.13
2018-05-26T08:45:38.888Z,213.75
2018-05-26T08:46:38.807Z,219.38
2018-05-26T08:47:39.903Z,219.38
2018-05-26T08:48:38.757Z,219.38
2018-05-26T08:49:38.900Z,219.38
2018-05-26T08:50:38.768Z,213.75
2018-05-26T08:51:38.742Z,213.75
2018-05-26T08:52:38.746Z,213.75
2018-05-26T08:53:38.686Z,208.13
2018-05-26T08:54:38.583Z,202.50
2018-05-26T08:55:38.653Z,202.50
2018-05-26T08:56:38.757Z,202.50
2018-05-26T08:57:38.658Z,202.50
2018-05-26T08:58:38.626Z,202.50
2018-05-26T08:59:38.638Z,208.13
2018-05-26T09:00:38.675Z,213.75
2018-05-26T09:01:38.653Z,208.13
2018-05-26T09:02:38.664Z,208.13
2018-05-26T09:03:38.677Z,208.13
2018-05-26T09:04:38.714Z,208.13
2018-05-26T09:05:38.749Z,208.13
2018-05-26T09:06:38.751Z,208.13
2018-05-26T09:07:38.784Z,202.50
2018-05-26T09:08:39.456Z,202.50
2018-05-26T09:09:39.871Z,208.13
2018-05-26T09:10:48.494Z,213.75
2018-05-26T09:12:33.189Z,213.75
2018-05-26T09:13:32.195Z,213.75
2018-05-26T09:15:26.225Z,202.50
2018-05-26T09:16:26.391Z,208.13
2018-05-26T09:17:26.239Z,208.13
2018-05-26T09:18:26.153Z,208.13
2018-05-26T09:19:26.175Z,208.13
2018-05-26T09:20:26.135Z,208.13
2018-05-26T09:21:26.134Z,213.75
2018-05-26T09:22:26.319Z,213.75
2018-05-26T09:23:26.156Z,196.88
2018-05-26T09:24:26.571Z,208.13
2018-05-26T09:25:26.297Z,219.38
2018-05-26T09:26:26.222Z,219.38
2018-05-26T09:27:26.192Z,208.13
2018-05-26T09:28:26.239Z,208.13
2018-05-26T09:29:27.188Z,118.13
2018-05-26T09:30:26.238Z,112.50
2018-05-26T09:31:26.224Z,112.50
2018-05-26T09:32:26.234Z,191.25
2018-05-26T09:33:26.279Z,151.88
2018-05-26T09:34:26.254Z,208.13
2018-05-26T09:35:26.278Z,202.50
2018-05-26T09:36:26.270Z,208.13
2018-05-26T09:37:27.153Z,208.13
2018-05-26T09:38:26.292Z,208.13
2018-05-26T09:39:26.332Z,208.13
2018-05-26T09:40:26.334Z,219.38
2018-05-26T09:41:26.381Z,213.75
2018-05-26T09:42:30.157Z,219.38
2018-05-26T09:43:28.150Z,219.38
2018-05-26T09:45:47.003Z,213.75
2018-05-26T09:46:47.219Z,208.13
2018-05-26T09:48:40.086Z,196.88
2018-05-26T09:49:40.049Z,202.50
2018-05-26T09:51:33.953Z,202.50
2018-05-26T09:52:40.157Z,208.13
2018-05-26T09:54:27.275Z,213.75
2018-05-26T09:55:29.064Z,213.75
2018-05-26T09:56:27.294Z,213.75
2018-05-26T09:57:27.181Z,208.13
2018-05-26T09:58:35.291Z,202.50
2018-05-26T10:01:52.441Z,208.13
2018-05-26T10:02:52.135Z,208.13
2018-05-26T10:03:52.121Z,208.13
2018-05-26T10:04:52.136Z,213.75
2018-05-26T10:05:52.139Z,213.75
2018-05-26T10:06:52.147Z,219.38
2018-05-26T10:07:59.282Z,213.75
2018-05-26T10:09:45.262Z,208.13
2018-05-26T10:10:45.105Z,208.13
2018-05-26T10:11:45.134Z,208.13
2018-05-26T10:12:45.241Z,208.13
2018-05-26T10:13:45.148Z,208.13
2018-05-26T10:14:45.118Z,213.75
2018-05-26T10:15:45.101Z,213.75
2018-05-26T10:16:45.069Z,219.38
2018-05-26T10:17:45.149Z,219.38
2018-05-26T10:18:45.098Z,225.00
2018-05-26T10:19:45.093Z,219.38
2018-05-26T10:20:45.141Z,219.38
2018-05-26T10:21:45.117Z,225.00
2018-05-26T10:22:45.134Z,225.00
2018-05-26T10:23:45.137Z,225.00
2018-05-26T10:24:45.140Z,225.00
2018-05-26T10:25:45.149Z,225.00
2018-05-26T10:26:45.231Z,225.00
2018-05-26T10:27:45.170Z,225.00
2018-05-26T10:28:45.174Z,219.38
2018-05-26T10:29:45.187Z,213.75
2018-05-26T10:30:45.201Z,208.13
2018-05-26T10:31:45.222Z,208.13
2018-05-26T10:32:45.265Z,129.38
2018-05-26T10:33:52.434Z,129.38
2018-05-26T10:35:38.810Z,213.75
2018-05-26T10:36:39.287Z,230.63
2018-05-26T10:38:44.694Z,230.63
2018-05-26T10:39:44.883Z,230.63
2018-05-26T10:40:47.776Z,225.00
2018-05-26T10:41:44.720Z,225.00
2018-05-26T10:42:44.733Z,225.00
2018-05-26T10:43:44.741Z,225.00
2018-05-26T10:44:46.685Z,219.38
2018-05-26T10:45:44.936Z,157.50
2018-05-26T10:46:44.872Z,151.88
2018-05-26T10:47:44.766Z,157.50
2018-05-26T10:48:44.822Z,225.00
2018-05-26T10:49:44.777Z,196.88
2018-05-26T10:50:45.137Z,236.25
2018-05-26T10:51:46.697Z,230.63
2018-05-26T10:52:52.824Z,196.88
2018-05-26T10:53:44.834Z,208.13
2018-05-26T10:54:44.831Z,230.63
2018-05-26T10:55:47.662Z,196.88
2018-05-26T10:56:44.839Z,163.13
2018-05-26T10:57:44.851Z,219.38
2018-05-26T10:58:44.859Z,236.25
2018-05-26T10:59:45.008Z,208.13
2018-05-26T11:00:44.929Z,219.38
2018-05-26T11:01:46.702Z,213.75
2018-05-26T11:04:32.983Z,129.38
2018-05-26T11:05:40.368Z,129.38
2018-05-26T11:07:27.859Z,129.38
2018-05-26T11:08:27.762Z,135.00
2018-05-26T11:09:27.801Z,168.75
2018-05-26T11:10:27.710Z,213.75
2018-05-26T11:11:27.807Z,213.75
2018-05-26T11:15:10.301Z,146.25
2018-05-26T11:16:10.362Z,140.63
2018-05-26T11:17:10.403Z,129.38
2018-05-26T11:18:10.289Z,118.13
2018-05-26T11:19:10.228Z,112.50
2018-05-26T11:20:10.296Z,112.50
2018-05-26T11:21:10.369Z,112.50
2018-05-26T11:23:42.990Z,112.50
2018-05-26T11:24:42.914Z,112.50
2018-05-26T11:25:42.858Z,118.13
2018-05-26T11:26:42.890Z,118.13
2018-05-26T11:27:42.840Z,123.75
2018-05-26T11:28:42.919Z,129.38
2018-05-26T11:29:42.862Z,140.63
2018-05-26T11:30:42.859Z,168.75
2018-05-26T11:31:42.873Z,174.38
2018-05-26T11:32:42.878Z,135.00
2018-05-26T11:33:42.884Z,135.00
2018-05-26T11:34:42.889Z,135.00
2018-05-26T11:35:42.980Z,129.38
2018-05-26T11:36:42.905Z,123.75
2018-05-26T11:37:42.951Z,118.13
2018-05-26T11:38:42.924Z,106.88
2018-05-26T11:39:42.933Z,101.25
2018-05-26T11:40:42.940Z,95.63
2018-05-26T11:41:42.993Z,90.00
2018-05-26T11:42:42.957Z,90.00
2018-05-26T11:43:43.002Z,90.00
2018-05-26T11:44:43.009Z,95.63
2018-05-26T11:45:44.688Z,101.25
2018-05-26T11:46:43.031Z,101.25
2018-05-26T11:47:43.060Z,101.25
2018-05-26T11:48:43.085Z,101.25
2018-05-26T11:49:43.053Z,101.25
2018-05-26T11:50:43.041Z,95.63
2018-05-26T11:51:43.066Z,95.63
2018-05-26T11:52:43.039Z,90.00
2018-05-26T11:53:43.180Z,90.00
2018-05-26T11:54:43.188Z,84.38
2018-05-26T11:55:44.174Z,78.75
2018-05-26T11:56:45.033Z,78.75
2018-05-26T11:57:43.073Z,73.13
2018-05-26T11:58:43.082Z,78.75
2018-05-26T11:59:43.115Z,78.75
2018-05-26T12:00:43.105Z,90.00
2018-05-26T12:01:43.109Z,106.88
2018-05-26T12:02:43.108Z,106.88
2018-05-26T12:03:43.122Z,118.13
2018-05-26T12:04:43.177Z,123.75
2018-05-26T12:05:43.130Z,146.25
2018-05-26T12:06:43.133Z,168.75
2018-05-26T12:07:43.142Z,168.75
2018-05-26T12:08:43.167Z,174.38
2018-05-26T12:09:43.156Z,174.38
2018-05-26T12:10:43.170Z,180.00
2018-05-26T12:11:43.174Z,180.00
2018-05-26T12:12:43.179Z,174.38
2018-05-26T12:13:43.192Z,174.38
2018-05-26T12:14:43.201Z,135.00
2018-05-26T12:15:43.217Z,168.75
2018-05-26T12:16:43.216Z,180.00
2018-05-26T12:17:43.233Z,168.75
2018-05-26T12:18:43.253Z,180.00
2018-05-26T12:19:43.233Z,191.25
2018-05-26T12:20:46.105Z,174.38
2018-05-26T12:21:43.250Z,163.13
2018-05-26T12:22:43.254Z,202.50
2018-05-26T12:23:43.269Z,196.88
2018-05-26T12:24:43.298Z,151.88
2018-05-26T12:25:43.281Z,151.88
2018-05-26T12:26:43.283Z,174.38
2018-05-26T12:27:43.304Z,191.25
2018-05-26T12:28:43.303Z,191.25
2018-05-26T12:29:43.307Z,196.88
2018-05-26T12:30:43.318Z,196.88
2018-05-26T12:31:43.326Z,191.25
2018-05-26T12:32:43.338Z,157.50
2018-05-26T12:33:43.344Z,146.25
2018-05-26T12:34:43.349Z,135.00
2018-05-26T12:35:43.356Z,129.38
2018-05-26T12:36:43.369Z,140.63
2018-05-26T12:37:43.375Z,174.38
2018-05-26T12:38:43.378Z,180.00
2018-05-26T12:39:43.387Z,180.00
2018-05-26T12:40:43.397Z,185.63
2018-05-26T12:41:43.408Z,185.63
2018-05-26T12:42:43.416Z,185.63
2018-05-26T12:43:43.436Z,180.00
2018-05-26T12:44:43.445Z,180.00
2018-05-26T12:45:43.438Z,174.38
2018-05-26T12:46:43.448Z,174.38
2018-05-26T12:47:43.457Z,168.75
2018-05-26T12:48:43.466Z,163.13
2018-05-26T12:49:43.474Z,163.13
2018-05-26T12:50:43.482Z,106.88
2018-05-26T12:51:43.490Z,101.25
2018-05-26T12:52:43.507Z,101.25
2018-05-26T12:53:43.508Z,101.25
2018-05-26T12:54:43.535Z,101.25
2018-05-26T12:55:43.545Z,101.25
2018-05-26T12:56:43.543Z,101.25
2018-05-26T12:57:43.556Z,101.25
2018-05-26T12:58:43.557Z,106.88
2018-05-26T12:59:43.564Z,151.88
2018-05-26T13:00:43.566Z,151.88
2018-05-26T13:01:43.580Z,151.88
2018-05-26T13:02:43.659Z,157.50
2018-05-26T13:03:43.620Z,157.50
2018-05-26T13:04:43.604Z,157.50
2018-05-26T13:05:43.653Z,151.88
2018-05-26T13:06:43.700Z,95.63
2018-05-26T13:07:43.640Z,90.00
2018-05-26T13:08:43.695Z,101.25
2018-05-26T13:09:43.743Z,129.38
2018-05-26T13:10:43.657Z,112.50